createdAt,value
2022-09-10T00:04:51.255Z,0
2022-09-10T00:09:51.249Z,0
2022-09-10T00:14:51.232Z,0
2022-09-10T00:19:51.274Z,0
2022-09-10T00:24:51.230Z,0
2022-09-10T00:29:51.222Z,0
2022-09-10T00:34:51.233Z,0
2022-09-10T00:39:51.253Z,0
2022-09-10T00:44:51.226Z,0
2022-09-10T00:49:51.242Z,0
2022-09-10T00:54:51.233Z,0
2022-09-10T00:59:51.263Z,0
2022-09-10T01:04:51.194Z,0
2022-09-10T01:09:51.224Z,0
2022-09-10T01:14:51.199Z,0
2022-09-10T01:19:51.265Z,0
2022-09-10T01:24:51.230Z,0
2022-09-10T01:29:51.224Z,0
2022-09-10T01:34:51.229Z,0
2022-09-10T01:39:51.265Z,0
2022-09-10T01:44:51.193Z,0
2022-09-10T01:49:51.220Z,0
2022-09-10T01:54:51.191Z,0
2022-09-10T01:59:51.214Z,0
2022-09-10T02:04:51.214Z,0
2022-09-10T02:09:51.208Z,0
2022-09-10T02:14:51.191Z,0
2022-09-10T02:19:51.229Z,0
2022-09-10T02:24:51.199Z,0
2022-09-10T02:29:51.201Z,0
2022-09-10T02:34:51.202Z,0
2022-09-10T02:39:51.212Z,0
2022-09-10T02:44:51.178Z,0
2022-09-10T02:49:51.199Z,0
2022-09-10T02:54:51.161Z,0
2022-09-10T02:59:51.226Z,0
2022-09-10T03:04:51.149Z,0
2022-09-10T03:09:51.242Z,0
2022-09-10T03:14:51.142Z,0
2022-09-10T03:19:51.187Z,0
2022-09-10T03:24:51.181Z,0
2022-09-10T03:29:51.145Z,0
2022-09-10T03:34:51.145Z,0
2022-09-10T03:39:51.233Z,0
2022-09-10T03:44:51.178Z,0
2022-09-10T03:49:51.172Z,0
2022-09-10T03:54:51.153Z,0
2022-09-10T03:59:51.185Z,0
2022-09-10T04:04:51.144Z,0
2022-09-10T04:09:51.156Z,0
2022-09-10T04:14:51.157Z,0
2022-09-10T04:19:51.193Z,0
2022-09-10T04:24:51.142Z,0
2022-09-10T04:29:51.117Z,0
2022-09-10T04:34:51.154Z,0
2022-09-10T04:39:51.218Z,0
2022-09-10T04:44:51.154Z,0
2022-09-10T04:49:51.159Z,0
2022-09-10T04:54:51.144Z,0
2022-09-10T04:59:51.141Z,1
2022-09-10T05:04:51.144Z,2
2022-09-10T05:09:51.118Z,2
2022-09-10T05:14:51.106Z,5
2022-09-10T05:19:51.105Z,3
2022-09-10T05:24:51.110Z,7
2022-09-10T05:29:51.091Z,5
2022-09-10T05:34:51.124Z,9
2022-09-10T05:39:51.430Z,11
2022-09-10T05:44:51.364Z,15
2022-09-10T05:49:51.381Z,21
2022-09-10T05:54:51.341Z,31
2022-09-10T05:59:51.392Z,33
2022-09-10T06:04:51.374Z,42
2022-09-10T06:09:51.355Z,57
2022-09-10T06:14:51.349Z,55
2022-09-10T06:19:51.386Z,53
2022-09-10T06:24:51.345Z,57
2022-09-10T06:29:51.342Z,42
2022-09-10T06:34:51.340Z,33
2022-09-10T06:39:51.393Z,38
2022-09-10T06:44:51.363Z,40
2022-09-10T06:49:51.353Z,40
2022-09-10T06:54:51.345Z,83
2022-09-10T06:59:51.597Z,103
2022-09-10T07:04:51.607Z,151
2022-09-10T07:09:51.577Z,202
2022-09-10T07:14:51.590Z,230
2022-09-10T07:19:51.605Z,344
2022-09-10T07:24:51.593Z,375
2022-09-10T07:29:51.587Z,191
2022-09-10T07:34:51.591Z,151
2022-09-10T07:39:51.640Z,312
2022-09-10T07:44:51.588Z,347
2022-09-10T07:49:51.562Z,382
2022-09-10T07:54:51.589Z,518
2022-09-10T07:59:51.616Z,265
2022-09-10T08:04:51.602Z,205
2022-09-10T08:09:51.570Z,248
2022-09-10T08:14:51.592Z,171
2022-09-10T08:19:51.571Z,195
2022-09-10T08:24:51.556Z,146
2022-09-10T08:29:51.566Z,92
2022-09-10T08:34:51.543Z,60
2022-09-10T08:39:51.616Z,63
2022-09-10T08:44:51.591Z,66
2022-09-10T08:49:51.588Z,139
2022-09-10T08:54:52.678Z,208
2022-09-10T08:59:52.685Z,193
2022-09-10T09:04:52.656Z,196
2022-09-10T09:09:52.654Z,186
2022-09-10T09:14:52.642Z,177
2022-09-10T09:19:52.681Z,190
2022-09-10T09:24:52.671Z,210
2022-09-10T09:29:52.672Z,224
2022-09-10T09:34:52.636Z,238
2022-09-10T09:39:52.820Z,247
2022-09-10T09:44:56.505Z,289
2022-09-10T09:49:52.648Z,426
2022-09-10T09:55:16.372Z,424
2022-09-10T09:59:52.666Z,392
2022-09-10T10:04:52.626Z,428
2022-09-10T10:09:52.632Z,393
2022-09-10T10:14:52.655Z,372
2022-09-10T10:19:52.654Z,412
2022-09-10T10:24:52.647Z,422
2022-09-10T10:29:52.679Z,392
2022-09-10T10:34:52.671Z,464
2022-09-10T10:39:52.708Z,474
2022-09-10T10:44:52.647Z,415
2022-09-10T10:49:52.618Z,369
2022-09-10T10:54:52.602Z,664
2022-09-10T10:59:52.689Z,581
2022-09-10T11:04:52.642Z,851
2022-09-10T11:09:52.659Z,953
2022-09-10T11:14:52.664Z,940
2022-09-10T11:20:05.285Z,447
2022-09-10T11:24:52.627Z,539
2022-09-10T11:29:52.609Z,645
2022-09-10T11:34:52.640Z,629
2022-09-10T11:39:52.777Z,564
2022-09-10T11:44:52.630Z,475
2022-09-10T11:49:52.649Z,414
2022-09-10T11:54:52.615Z,401
2022-09-10T11:59:52.663Z,431
2022-09-10T12:04:52.612Z,422
2022-09-10T12:09:52.600Z,426
2022-09-10T12:14:52.609Z,414
2022-09-10T12:19:52.664Z,393
2022-09-10T12:24:52.633Z,347
2022-09-10T12:29:52.618Z,328
2022-09-10T12:34:52.617Z,330
2022-09-10T12:39:52.680Z,296
2022-09-10T12:44:52.640Z,256
2022-09-10T12:49:52.607Z,245
2022-09-10T12:54:52.638Z,241
2022-09-10T12:59:52.661Z,216
2022-09-10T13:04:52.622Z,185
2022-09-10T13:09:52.634Z,193
2022-09-10T13:14:52.614Z,173
2022-09-10T13:19:52.664Z,132
2022-09-10T13:24:52.585Z,109
2022-09-10T13:29:52.596Z,89
2022-09-10T13:34:52.627Z,66
2022-09-10T13:39:52.663Z,58
2022-09-10T13:44:52.588Z,55
2022-09-10T13:49:52.612Z,54
2022-09-10T13:54:52.582Z,53
2022-09-10T13:59:52.635Z,59
2022-09-10T14:04:52.596Z,70
2022-09-10T14:09:52.558Z,95
2022-09-10T14:14:52.583Z,118
2022-09-10T14:19:52.620Z,166
2022-09-10T14:24:52.617Z,165
2022-09-10T14:29:52.598Z,191
2022-09-10T14:34:52.620Z,207
2022-09-10T14:39:52.667Z,203
2022-09-10T14:44:52.583Z,158
2022-09-10T14:49:52.575Z,131
2022-09-10T14:54:52.606Z,125
2022-09-10T14:59:56.696Z,123
2022-09-10T15:04:52.623Z,132
2022-09-10T15:09:52.588Z,160
2022-09-10T15:14:52.572Z,176
2022-09-10T15:19:52.606Z,191
2022-09-10T15:25:08.903Z,197
2022-09-10T15:29:52.560Z,207
2022-09-10T15:34:52.589Z,196
2022-09-10T15:39:52.649Z,145
2022-09-10T15:44:52.590Z,122
2022-09-10T15:49:52.571Z,120
2022-09-10T15:54:52.593Z,124
2022-09-10T15:59:52.595Z,137
2022-09-10T16:04:52.589Z,139
2022-09-10T16:09:52.756Z,139
2022-09-10T16:14:52.583Z,134
2022-09-10T16:19:52.599Z,133
2022-09-10T16:24:52.585Z,123
2022-09-10T16:29:52.580Z,130
2022-09-10T16:34:52.579Z,145
2022-09-10T16:39:52.678Z,167
2022-09-10T16:44:52.552Z,148
2022-09-10T16:49:52.604Z,130
2022-09-10T16:54:52.564Z,105
2022-09-10T16:59:52.591Z,66
2022-09-10T17:04:52.575Z,52
2022-09-10T17:09:52.569Z,41
2022-09-10T17:14:52.541Z,31
2022-09-10T17:19:52.588Z,21
2022-09-10T17:24:52.552Z,15
2022-09-10T17:29:52.549Z,11
2022-09-10T17:34:52.565Z,14
2022-09-10T17:39:52.639Z,7
2022-09-10T17:44:52.549Z,2
2022-09-10T17:49:52.523Z,0
2022-09-10T17:54:52.794Z,0
2022-09-10T17:59:52.842Z,0
2022-09-10T18:04:52.818Z,0
2022-09-10T18:09:53.060Z,0
2022-09-10T18:14:53.068Z,0
2022-09-10T18:19:53.065Z,0
2022-09-10T18:24:53.637Z,0
2022-09-10T18:29:53.585Z,0
2022-09-10T18:34:53.656Z,0
2022-09-10T18:39:53.623Z,0
2022-09-10T18:44:53.591Z,0
2022-09-10T18:49:53.593Z,0
2022-09-10T18:54:53.565Z,0
2022-09-10T18:59:53.854Z,0
2022-09-10T19:05:10.584Z,0
2022-09-10T19:09:53.802Z,0
2022-09-10T19:14:54.060Z,0
2022-09-10T19:19:54.116Z,0
2022-09-10T19:24:55.516Z,0
2022-09-10T19:29:54.178Z,0
2022-09-10T19:34:54.055Z,0
2022-09-10T19:39:54.237Z,0
2022-09-10T19:44:54.066Z,0
2022-09-10T19:49:54.034Z,0
2022-09-10T19:54:54.292Z,0
2022-09-10T19:59:54.334Z,0
2022-09-10T20:04:54.292Z,0
2022-09-10T20:09:54.319Z,0
2022-09-10T20:14:54.309Z,0
2022-09-10T20:19:54.338Z,0
2022-09-10T20:24:54.279Z,0
2022-09-10T20:29:54.278Z,0
2022-09-10T20:34:54.299Z,0
2022-09-10T20:39:54.356Z,0
2022-09-10T20:44:54.279Z,0
2022-09-10T20:49:54.296Z,0
2022-09-10T20:54:54.275Z,0
2022-09-10T20:59:54.303Z,0
2022-09-10T21:04:55.075Z,0
2022-09-10T21:09:54.927Z,0
2022-09-10T21:14:54.932Z,0
2022-09-10T21:19:54.938Z,0
2022-09-10T21:24:54.914Z,0
2022-09-10T21:29:55.175Z,0
2022-09-10T21:34:55.169Z,0
2022-09-10T21:39:55.175Z,0
2022-09-10T21:44:55.158Z,0
2022-09-10T21:49:55.140Z,0
2022-09-10T21:54:55.136Z,0
2022-09-10T21:59:55.163Z,0
2022-09-10T22:04:55.136Z,0
2022-09-10T22:09:55.164Z,0
2022-09-10T22:14:55.162Z,0
2022-09-10T22:19:55.146Z,0
2022-09-10T22:24:55.131Z,0
2022-09-10T22:29:55.125Z,0
2022-09-10T22:34:55.143Z,0
2022-09-10T22:39:55.218Z,0
2022-09-10T22:44:55.119Z,0
2022-09-10T22:49:55.104Z,0
2022-09-10T22:54:55.125Z,0
2022-09-10T22:59:55.157Z,0
2022-09-10T23:04:55.108Z,0
2022-09-10T23:09:55.125Z,0
2022-09-10T23:14:55.098Z,0
2022-09-10T23:19:55.163Z,0
2022-09-10T23:24:55.082Z,0
2022-09-10T23:29:55.089Z,0
2022-09-10T23:34:55.092Z,0
2022-09-10T23:39:55.152Z,0
2022-09-10T23:44:55.102Z,0
2022-09-10T23:49:55.100Z,0
2022-09-10T23:54:55.103Z,0
2022-09-10T23:59:55.137Z,0
